Nearby METAR Reports

 

NZWN - Wellington Intl, New Zealand
Distance from station: SSE 156km
Updated: Tue, 19-Dec-2017 5:00am NZDT
Clear
Clear
 Wind from NNW
Wind: NNW 9 km/h
Temperature: 14°C
Dew Point: 9°C
Humidity: 72%
Barometer: 1008 hPa
Clouds: Clear
Visibility: 10 km
2017/12/18 16:00 NZWN 181600Z AUTO 34005KT 9999 NCD 14/09 Q1008 NOSIG
NZAA - Auckland Intl Ar, New Zealand
Distance from station: N 334km
Updated: Tue, 19-Dec-2017 5:00am NZDT
Mostly cloudy
Mostly cloudy
 Wind from SW
Wind: SW 19 km/h
Temperature: 19°C
Dew Point: 15°C
Humidity: 78%
Barometer: 1009 hPa
Clouds: Mostly cloudy
Visibility: 10 km
Cloud details: Partly cloudy 610 m
Mostly cloudy 762 m
Mostly cloudy 1097 m
2017/12/18 16:00 NZAA 181600Z AUTO 23010KT 9999 SCT020/// BKN025/// BKN036/// 19/15 Q1009 NOSIG
 
NZWP - Whenuapai (nz-Af, New Zealand
Distance from station: N 359km
Updated: Thu, 14-Dec-2017 8:00pm NZDT
NOT Current
Partly cloudy
Partly cloudy
 Wind from NNE
Wind: NNE 11 km/h
Temperature: 21°C
Dew Point: 12°C
Humidity: 57%
Barometer: 1013 hPa
Clouds: Partly cloudy
Cloud details: Partly cloudy 1829 m
2017/12/14 07:00 NZWP 140700Z 02006KT 30KM SCT060 21/12 Q1013 NOSIG
NZCH - Christchurch Int, New Zealand
Distance from station: SSW 412km
Updated: Tue, 19-Dec-2017 5:00am NZDT
Clear
Clear
 Wind from E
Wind: E 15 km/h
Temperature: 13°C
Dew Point: 10°C
Humidity: 82%
Barometer: 1003 hPa
Clouds: Clear
Visibility: 10 km
2017/12/18 16:00 NZCH 181600Z AUTO 08008KT 050V110 9999 NCD 13/10 Q1003 NOSIG

Metar display script from Saratoga-Weather.org